sensor_id;sensor_type;location;lat;lon;timestamp;P1;durP1;ratioP1;P2;durP2;ratioP2
12290;SDS011;6208;48.956;9.076;2023-05-14T00:00:14;6.53;;;5.95;;
12290;SDS011;6208;48.956;9.076;2023-05-14T00:02:59;5.93;;;5.50;;
12290;SDS011;6208;48.956;9.076;2023-05-14T00:05:42;7.03;;;6.53;;
12290;SDS011;6208;48.956;9.076;2023-05-14T00:08:26;6.63;;;6.03;;
12290;SDS011;6208;48.956;9.076;2023-05-14T00:11:11;6.53;;;5.68;;
12290;SDS011;6208;48.956;9.076;2023-05-14T00:13:55;6.03;;;5.43;;
12290;SDS011;6208;48.956;9.076;2023-05-14T00:16:40;6.13;;;5.72;;
12290;SDS011;6208;48.956;9.076;2023-05-14T00:19:24;5.45;;;5.10;;
12290;SDS011;6208;48.956;9.076;2023-05-14T00:22:08;5.88;;;5.47;;
12290;SDS011;6208;48.956;9.076;2023-05-14T00:24:53;6.03;;;5.63;;
12290;SDS011;6208;48.956;9.076;2023-05-14T00:27:37;6.30;;;5.80;;
12290;SDS011;6208;48.956;9.076;2023-05-14T00:30:21;5.82;;;5.43;;
12290;SDS011;6208;48.956;9.076;2023-05-14T00:33:06;5.70;;;5.30;;
12290;SDS011;6208;48.956;9.076;2023-05-14T00:35:50;5.35;;;5.05;;
12290;SDS011;6208;48.956;9.076;2023-05-14T00:38:34;5.35;;;4.93;;
12290;SDS011;6208;48.956;9.076;2023-05-14T00:41:18;7.65;;;6.75;;
12290;SDS011;6208;48.956;9.076;2023-05-14T00:44:04;5.70;;;5.13;;
12290;SDS011;6208;48.956;9.076;2023-05-14T00:46:48;5.03;;;4.72;;
12290;SDS011;6208;48.956;9.076;2023-05-14T00:49:32;5.38;;;4.97;;
12290;SDS011;6208;48.956;9.076;2023-05-14T00:52:17;5.30;;;4.88;;
12290;SDS011;6208;48.956;9.076;2023-05-14T00:55:02;4.88;;;4.57;;
12290;SDS011;6208;48.956;9.076;2023-05-14T00:57:49;5.28;;;4.97;;
12290;SDS011;6208;48.956;9.076;2023-05-14T01:00:33;5.35;;;4.97;;
12290;SDS011;6208;48.956;9.076;2023-05-14T01:03:18;5.63;;;5.10;;
12290;SDS011;6208;48.956;9.076;2023-05-14T01:06:22;5.57;;;5.10;;
12290;SDS011;6208;48.956;9.076;2023-05-14T01:09:24;5.60;;;5.20;;
12290;SDS011;6208;48.956;9.076;2023-05-14T01:12:20;5.53;;;5.13;;
12290;SDS011;6208;48.956;9.076;2023-05-14T01:15:14;5.65;;;5.25;;
12290;SDS011;6208;48.956;9.076;2023-05-14T01:18:08;5.03;;;4.72;;
12290;SDS011;6208;48.956;9.076;2023-05-14T01:20:53;5.53;;;5.13;;
12290;SDS011;6208;48.956;9.076;2023-05-14T01:23:38;5.90;;;5.50;;
12290;SDS011;6208;48.956;9.076;2023-05-14T01:26:22;5.25;;;4.85;;
12290;SDS011;6208;48.956;9.076;2023-05-14T01:29:09;4.97;;;4.57;;
12290;SDS011;6208;48.956;9.076;2023-05-14T01:32:04;4.93;;;4.63;;
12290;SDS011;6208;48.956;9.076;2023-05-14T01:34:50;4.85;;;4.55;;
12290;SDS011;6208;48.956;9.076;2023-05-14T01:37:36;4.80;;;4.50;;
12290;SDS011;6208;48.956;9.076;2023-05-14T01:40:21;5.00;;;4.70;;
12290;SDS011;6208;48.956;9.076;2023-05-14T01:43:06;4.78;;;4.47;;
12290;SDS011;6208;48.956;9.076;2023-05-14T01:45:51;5.13;;;4.72;;
12290;SDS011;6208;48.956;9.076;2023-05-14T01:48:37;6.35;;;4.72;;
12290;SDS011;6208;48.956;9.076;2023-05-14T01:51:24;5.13;;;4.63;;
12290;SDS011;6208;48.956;9.076;2023-05-14T01:54:08;5.90;;;5.28;;
12290;SDS011;6208;48.956;9.076;2023-05-14T01:56:52;5.00;;;4.60;;
12290;SDS011;6208;48.956;9.076;2023-05-14T01:59:36;6.38;;;5.88;;
12290;SDS011;6208;48.956;9.076;2023-05-14T02:02:20;5.40;;;4.90;;
12290;SDS011;6208;48.956;9.076;2023-05-14T02:05:04;5.72;;;5.18;;
12290;SDS011;6208;48.956;9.076;2023-05-14T02:07:49;5.07;;;4.68;;
12290;SDS011;6208;48.956;9.076;2023-05-14T02:10:33;5.75;;;5.18;;
12290;SDS011;6208;48.956;9.076;2023-05-14T02:13:18;5.60;;;5.05;;
12290;SDS011;6208;48.956;9.076;2023-05-14T02:16:02;6.00;;;5.50;;
12290;SDS011;6208;48.956;9.076;2023-05-14T02:18:46;6.00;;;5.50;;
12290;SDS011;6208;48.956;9.076;2023-05-14T02:21:31;6.07;;;5.35;;
12290;SDS011;6208;48.956;9.076;2023-05-14T02:24:15;5.80;;;5.30;;
12290;SDS011;6208;48.956;9.076;2023-05-14T02:26:59;5.38;;;4.97;;
12290;SDS011;6208;48.956;9.076;2023-05-14T02:29:43;4.82;;;4.43;;
12290;SDS011;6208;48.956;9.076;2023-05-14T02:32:28;5.63;;;5.15;;
12290;SDS011;6208;48.956;9.076;2023-05-14T02:35:15;5.35;;;5.05;;
12290;SDS011;6208;48.956;9.076;2023-05-14T02:37:59;5.15;;;4.80;;
12290;SDS011;6208;48.956;9.076;2023-05-14T02:40:43;4.80;;;4.43;;
12290;SDS011;6208;48.956;9.076;2023-05-14T02:43:27;5.38;;;4.97;;
12290;SDS011;6208;48.956;9.076;2023-05-14T02:46:12;5.78;;;5.32;;
12290;SDS011;6208;48.956;9.076;2023-05-14T02:48:56;9.07;;;5.07;;
12290;SDS011;6208;48.956;9.076;2023-05-14T02:51:40;5.55;;;5.10;;
12290;SDS011;6208;48.956;9.076;2023-05-14T02:54:25;5.40;;;5.00;;
12290;SDS011;6208;48.956;9.076;2023-05-14T02:57:09;5.93;;;5.43;;
12290;SDS011;6208;48.956;9.076;2023-05-14T02:59:53;6.28;;;5.47;;
12290;SDS011;6208;48.956;9.076;2023-05-14T03:02:37;5.97;;;5.50;;
12290;SDS011;6208;48.956;9.076;2023-05-14T03:05:21;5.40;;;5.00;;
12290;SDS011;6208;48.956;9.076;2023-05-14T03:08:05;6.25;;;5.65;;
12290;SDS011;6208;48.956;9.076;2023-05-14T03:10:49;5.75;;;5.28;;
12290;SDS011;6208;48.956;9.076;2023-05-14T03:13:34;5.75;;;5.32;;
12290;SDS011;6208;48.956;9.076;2023-05-14T03:16:18;6.03;;;5.53;;
12290;SDS011;6208;48.956;9.076;2023-05-14T03:19:02;6.00;;;5.60;;
12290;SDS011;6208;48.956;9.076;2023-05-14T03:21:46;5.78;;;5.32;;
12290;SDS011;6208;48.956;9.076;2023-05-14T03:24:30;6.15;;;5.65;;
12290;SDS011;6208;48.956;9.076;2023-05-14T03:27:14;6.65;;;5.80;;
12290;SDS011;6208;48.956;9.076;2023-05-14T03:29:58;6.35;;;5.85;;
12290;SDS011;6208;48.956;9.076;2023-05-14T03:32:43;5.72;;;5.32;;
12290;SDS011;6208;48.956;9.076;2023-05-14T03:35:28;6.50;;;6.10;;
12290;SDS011;6208;48.956;9.076;2023-05-14T03:38:12;6.38;;;5.88;;
12290;SDS011;6208;48.956;9.076;2023-05-14T03:40:56;5.90;;;5.50;;
12290;SDS011;6208;48.956;9.076;2023-05-14T03:43:40;5.50;;;5.10;;
12290;SDS011;6208;48.956;9.076;2023-05-14T03:46:24;6.22;;;5.72;;
12290;SDS011;6208;48.956;9.076;2023-05-14T03:49:08;6.63;;;6.13;;
12290;SDS011;6208;48.956;9.076;2023-05-14T03:51:53;5.97;;;5.57;;
12290;SDS011;6208;48.956;9.076;2023-05-14T03:54:37;6.32;;;5.82;;
12290;SDS011;6208;48.956;9.076;2023-05-14T03:57:23;6.38;;;5.78;;
12290;SDS011;6208;48.956;9.076;2023-05-14T04:00:07;6.78;;;6.10;;
12290;SDS011;6208;48.956;9.076;2023-05-14T04:02:52;6.88;;;6.43;;
12290;SDS011;6208;48.956;9.076;2023-05-14T04:05:37;6.15;;;5.65;;
12290;SDS011;6208;48.956;9.076;2023-05-14T04:08:21;6.55;;;6.05;;
12290;SDS011;6208;48.956;9.076;2023-05-14T04:11:05;6.55;;;6.03;;
12290;SDS011;6208;48.956;9.076;2023-05-14T04:13:51;6.60;;;6.00;;
12290;SDS011;6208;48.956;9.076;2023-05-14T04:16:35;6.63;;;6.03;;
12290;SDS011;6208;48.956;9.076;2023-05-14T04:19:19;5.88;;;5.47;;
12290;SDS011;6208;48.956;9.076;2023-05-14T04:22:03;6.60;;;6.10;;
12290;SDS011;6208;48.956;9.076;2023-05-14T04:24:47;6.80;;;6.20;;
12290;SDS011;6208;48.956;9.076;2023-05-14T04:27:32;6.47;;;6.07;;
12290;SDS011;6208;48.956;9.076;2023-05-14T04:30:17;6.70;;;6.20;;
12290;SDS011;6208;48.956;9.076;2023-05-14T04:33:01;7.05;;;6.45;;
12290;SDS011;6208;48.956;9.076;2023-05-14T04:35:46;5.95;;;5.55;;
12290;SDS011;6208;48.956;9.076;2023-05-14T04:38:30;6.28;;;5.78;;
12290;SDS011;6208;48.956;9.076;2023-05-14T04:41:14;6.50;;;5.93;;
12290;SDS011;6208;48.956;9.076;2023-05-14T04:43:59;7.70;;;6.55;;
12290;SDS011;6208;48.956;9.076;2023-05-14T04:46:44;6.50;;;5.97;;
12290;SDS011;6208;48.956;9.076;2023-05-14T04:49:29;6.10;;;5.60;;
12290;SDS011;6208;48.956;9.076;2023-05-14T04:52:13;7.03;;;6.53;;
12290;SDS011;6208;48.956;9.076;2023-05-14T04:54:58;7.55;;;6.45;;
12290;SDS011;6208;48.956;9.076;2023-05-14T04:57:42;7.00;;;6.50;;
12290;SDS011;6208;48.956;9.076;2023-05-14T05:00:26;7.28;;;6.70;;
12290;SDS011;6208;48.956;9.076;2023-05-14T05:03:11;6.78;;;6.28;;
12290;SDS011;6208;48.956;9.076;2023-05-14T05:05:55;7.50;;;6.90;;
12290;SDS011;6208;48.956;9.076;2023-05-14T05:08:40;7.88;;;6.80;;
12290;SDS011;6208;48.956;9.076;2023-05-14T05:11:24;7.68;;;6.97;;
12290;SDS011;6208;48.956;9.076;2023-05-14T05:14:08;7.13;;;6.63;;
12290;SDS011;6208;48.956;9.076;2023-05-14T05:16:53;7.93;;;7.22;;
12290;SDS011;6208;48.956;9.076;2023-05-14T05:19:37;7.53;;;6.90;;
12290;SDS011;6208;48.956;9.076;2023-05-14T05:22:22;8.02;;;7.32;;
12290;SDS011;6208;48.956;9.076;2023-05-14T05:25:06;6.85;;;6.25;;
12290;SDS011;6208;48.956;9.076;2023-05-14T05:27:51;7.50;;;6.80;;
12290;SDS011;6208;48.956;9.076;2023-05-14T05:30:35;7.15;;;6.63;;
12290;SDS011;6208;48.956;9.076;2023-05-14T05:33:20;7.53;;;6.65;;
12290;SDS011;6208;48.956;9.076;2023-05-14T05:36:04;7.18;;;6.60;;
12290;SDS011;6208;48.956;9.076;2023-05-14T05:38:49;7.38;;;6.78;;
12290;SDS011;6208;48.956;9.076;2023-05-14T05:41:33;7.38;;;6.80;;
12290;SDS011;6208;48.956;9.076;2023-05-14T05:44:17;7.30;;;6.72;;
12290;SDS011;6208;48.956;9.076;2023-05-14T05:47:01;7.35;;;6.75;;
12290;SDS011;6208;48.956;9.076;2023-05-14T05:49:45;7.55;;;6.93;;
12290;SDS011;6208;48.956;9.076;2023-05-14T05:52:29;7.05;;;6.45;;
12290;SDS011;6208;48.956;9.076;2023-05-14T05:55:14;7.03;;;6.53;;
12290;SDS011;6208;48.956;9.076;2023-05-14T05:57:58;8.05;;;7.30;;
12290;SDS011;6208;48.956;9.076;2023-05-14T06:00:42;7.70;;;7.10;;
12290;SDS011;6208;48.956;9.076;2023-05-14T06:03:27;8.25;;;7.55;;
12290;SDS011;6208;48.956;9.076;2023-05-14T06:06:11;7.80;;;6.93;;
12290;SDS011;6208;48.956;9.076;2023-05-14T06:08:56;7.22;;;6.63;;
12290;SDS011;6208;48.956;9.076;2023-05-14T06:11:40;7.05;;;6.55;;
12290;SDS011;6208;48.956;9.076;2023-05-14T06:14:24;7.43;;;6.82;;
12290;SDS011;6208;48.956;9.076;2023-05-14T06:17:08;6.88;;;6.38;;
12290;SDS011;6208;48.956;9.076;2023-05-14T06:19:53;7.68;;;7.07;;
12290;SDS011;6208;48.956;9.076;2023-05-14T06:22:37;7.65;;;6.95;;
12290;SDS011;6208;48.956;9.076;2023-05-14T06:25:21;7.07;;;6.57;;
12290;SDS011;6208;48.956;9.076;2023-05-14T06:28:05;7.57;;;6.90;;
12290;SDS011;6208;48.956;9.076;2023-05-14T06:30:50;7.65;;;7.05;;
12290;SDS011;6208;48.956;9.076;2023-05-14T06:33:36;7.80;;;7.20;;
12290;SDS011;6208;48.956;9.076;2023-05-14T06:36:21;8.35;;;7.50;;
12290;SDS011;6208;48.956;9.076;2023-05-14T06:39:05;8.68;;;7.65;;
12290;SDS011;6208;48.956;9.076;2023-05-14T06:41:49;8.25;;;7.45;;
12290;SDS011;6208;48.956;9.076;2023-05-14T06:44:34;7.93;;;7.32;;
12290;SDS011;6208;48.956;9.076;2023-05-14T06:47:18;7.93;;;6.97;;
12290;SDS011;6208;48.956;9.076;2023-05-14T06:50:03;8.27;;;7.63;;
12290;SDS011;6208;48.956;9.076;2023-05-14T06:52:48;7.93;;;7.22;;
12290;SDS011;6208;48.956;9.076;2023-05-14T06:55:32;7.53;;;6.93;;
12290;SDS011;6208;48.956;9.076;2023-05-14T06:58:16;7.90;;;7.30;;
12290;SDS011;6208;48.956;9.076;2023-05-14T07:01:00;7.90;;;7.10;;
12290;SDS011;6208;48.956;9.076;2023-05-14T07:03:44;8.55;;;7.75;;
12290;SDS011;6208;48.956;9.076;2023-05-14T07:06:29;7.95;;;7.35;;
12290;SDS011;6208;48.956;9.076;2023-05-14T07:09:14;8.05;;;7.35;;
12290;SDS011;6208;48.956;9.076;2023-05-14T07:11:59;7.65;;;7.05;;
12290;SDS011;6208;48.956;9.076;2023-05-14T07:14:43;8.40;;;7.70;;
12290;SDS011;6208;48.956;9.076;2023-05-14T07:17:27;10.93;;;7.88;;
12290;SDS011;6208;48.956;9.076;2023-05-14T07:20:11;8.02;;;7.40;;
12290;SDS011;6208;48.956;9.076;2023-05-14T07:22:56;8.73;;;7.93;;
12290;SDS011;6208;48.956;9.076;2023-05-14T07:25:40;8.13;;;7.47;;
12290;SDS011;6208;48.956;9.076;2023-05-14T07:28:24;8.25;;;7.55;;
12290;SDS011;6208;48.956;9.076;2023-05-14T07:31:09;8.05;;;7.43;;
12290;SDS011;6208;48.956;9.076;2023-05-14T07:33:53;8.20;;;7.45;;
12290;SDS011;6208;48.956;9.076;2023-05-14T07:36:37;8.00;;;7.40;;
12290;SDS011;6208;48.956;9.076;2023-05-14T07:39:21;8.02;;;7.43;;
12290;SDS011;6208;48.956;9.076;2023-05-14T07:42:05;7.95;;;7.25;;
12290;SDS011;6208;48.956;9.076;2023-05-14T07:44:49;8.73;;;7.50;;
12290;SDS011;6208;48.956;9.076;2023-05-14T07:47:37;8.05;;;7.40;;
12290;SDS011;6208;48.956;9.076;2023-05-14T07:50:21;8.13;;;7.43;;
12290;SDS011;6208;48.956;9.076;2023-05-14T07:53:06;8.25;;;7.60;;
12290;SDS011;6208;48.956;9.076;2023-05-14T07:55:53;8.60;;;7.82;;
12290;SDS011;6208;48.956;9.076;2023-05-14T07:58:37;8.38;;;7.68;;
12290;SDS011;6208;48.956;9.076;2023-05-14T08:01:22;8.05;;;7.32;;
12290;SDS011;6208;48.956;9.076;2023-05-14T08:04:06;8.48;;;7.78;;
12290;SDS011;6208;48.956;9.076;2023-05-14T08:06:50;8.43;;;7.72;;
12290;SDS011;6208;48.956;9.076;2023-05-14T08:09:34;7.72;;;7.13;;
12290;SDS011;6208;48.956;9.076;2023-05-14T08:12:18;8.05;;;7.22;;
12290;SDS011;6208;48.956;9.076;2023-05-14T08:15:03;7.97;;;7.38;;
12290;SDS011;6208;48.956;9.076;2023-05-14T08:17:51;8.55;;;7.90;;
12290;SDS011;6208;48.956;9.076;2023-05-14T08:20:35;8.15;;;7.53;;
12290;SDS011;6208;48.956;9.076;2023-05-14T08:23:19;8.10;;;7.50;;
12290;SDS011;6208;48.956;9.076;2023-05-14T08:26:05;8.32;;;7.63;;
12290;SDS011;6208;48.956;9.076;2023-05-14T08:28:49;8.15;;;7.53;;
12290;SDS011;6208;48.956;9.076;2023-05-14T08:31:33;7.85;;;7.25;;
12290;SDS011;6208;48.956;9.076;2023-05-14T08:34:18;8.60;;;7.90;;
12290;SDS011;6208;48.956;9.076;2023-05-14T08:37:02;8.68;;;7.97;;
12290;SDS011;6208;48.956;9.076;2023-05-14T08:39:47;8.75;;;7.82;;
12290;SDS011;6208;48.956;9.076;2023-05-14T08:42:32;8.38;;;7.75;;
12290;SDS011;6208;48.956;9.076;2023-05-14T08:45:19;8.68;;;7.32;;
12290;SDS011;6208;48.956;9.076;2023-05-14T08:48:06;7.97;;;7.47;;
12290;SDS011;6208;48.956;9.076;2023-05-14T08:50:52;8.20;;;7.50;;
12290;SDS011;6208;48.956;9.076;2023-05-14T08:53:36;8.10;;;7.50;;
12290;SDS011;6208;48.956;9.076;2023-05-14T08:56:22;7.95;;;7.25;;
12290;SDS011;6208;48.956;9.076;2023-05-14T08:59:08;8.02;;;7.32;;
12290;SDS011;6208;48.956;9.076;2023-05-14T09:01:54;8.13;;;7.53;;
12290;SDS011;6208;48.956;9.076;2023-05-14T09:04:43;8.43;;;7.72;;
12290;SDS011;6208;48.956;9.076;2023-05-14T09:07:28;7.80;;;7.30;;
12290;SDS011;6208;48.956;9.076;2023-05-14T09:10:12;7.80;;;7.20;;
12290;SDS011;6208;48.956;9.076;2023-05-14T09:12:57;8.38;;;7.78;;
12290;SDS011;6208;48.956;9.076;2023-05-14T09:15:42;9.07;;;8.25;;
12290;SDS011;6208;48.956;9.076;2023-05-14T09:18:27;8.48;;;7.88;;
12290;SDS011;6208;48.956;9.076;2023-05-14T09:21:14;9.20;;;8.50;;
12290;SDS011;6208;48.956;9.076;2023-05-14T09:24:00;8.10;;;7.50;;
12290;SDS011;6208;48.956;9.076;2023-05-14T09:26:48;8.90;;;8.10;;
12290;SDS011;6208;48.956;9.076;2023-05-14T09:29:36;8.40;;;7.70;;
12290;SDS011;6208;48.956;9.076;2023-05-14T09:32:20;9.40;;;8.60;;
12290;SDS011;6208;48.956;9.076;2023-05-14T09:35:17;9.23;;;8.45;;
12290;SDS011;6208;48.956;9.076;2023-05-14T09:38:02;8.40;;;7.70;;
12290;SDS011;6208;48.956;9.076;2023-05-14T09:40:49;8.38;;;7.68;;
12290;SDS011;6208;48.956;9.076;2023-05-14T09:43:33;9.70;;;8.80;;
12290;SDS011;6208;48.956;9.076;2023-05-14T09:46:18;9.50;;;8.60;;
12290;SDS011;6208;48.956;9.076;2023-05-14T09:49:02;9.27;;;8.48;;
12290;SDS011;6208;48.956;9.076;2023-05-14T09:51:49;8.63;;;7.93;;
12290;SDS011;6208;48.956;9.076;2023-05-14T09:54:33;9.00;;;8.10;;
12290;SDS011;6208;48.956;9.076;2023-05-14T09:57:19;8.27;;;7.57;;
12290;SDS011;6208;48.956;9.076;2023-05-14T10:00:04;8.75;;;8.02;;
12290;SDS011;6208;48.956;9.076;2023-05-14T10:02:52;8.20;;;7.50;;
12290;SDS011;6208;48.956;9.076;2023-05-14T10:05:37;8.13;;;7.43;;
12290;SDS011;6208;48.956;9.076;2023-05-14T10:08:26;9.90;;;7.40;;
12290;SDS011;6208;48.956;9.076;2023-05-14T10:11:14;9.00;;;8.20;;
12290;SDS011;6208;48.956;9.076;2023-05-14T10:14:17;7.45;;;6.95;;
12290;SDS011;6208;48.956;9.076;2023-05-14T10:17:05;8.02;;;7.43;;
12290;SDS011;6208;48.956;9.076;2023-05-14T10:20:00;7.82;;;7.13;;
12290;SDS011;6208;48.956;9.076;2023-05-14T10:22:47;8.27;;;6.88;;
12290;SDS011;6208;48.956;9.076;2023-05-14T10:25:32;7.75;;;7.10;;
12290;SDS011;6208;48.956;9.076;2023-05-14T10:28:18;8.48;;;7.70;;
12290;SDS011;6208;48.956;9.076;2023-05-14T10:31:02;7.70;;;7.10;;
12290;SDS011;6208;48.956;9.076;2023-05-14T10:33:50;7.55;;;6.85;;
12290;SDS011;6208;48.956;9.076;2023-05-14T10:36:37;8.10;;;7.40;;
12290;SDS011;6208;48.956;9.076;2023-05-14T10:39:23;8.13;;;7.43;;
12290;SDS011;6208;48.956;9.076;2023-05-14T10:42:32;8.55;;;7.78;;
12290;SDS011;6208;48.956;9.076;2023-05-14T10:45:25;7.88;;;7.18;;
12290;SDS011;6208;48.956;9.076;2023-05-14T10:48:10;6.60;;;6.07;;
12290;SDS011;6208;48.956;9.076;2023-05-14T10:50:55;7.38;;;6.50;;
12290;SDS011;6208;48.956;9.076;2023-05-14T10:53:40;6.68;;;6.15;;
12290;SDS011;6208;48.956;9.076;2023-05-14T10:56:25;7.00;;;6.50;;
12290;SDS011;6208;48.956;9.076;2023-05-14T10:59:10;7.18;;;6.50;;
12290;SDS011;6208;48.956;9.076;2023-05-14T11:01:57;7.43;;;6.72;;
12290;SDS011;6208;48.956;9.076;2023-05-14T11:04:41;6.80;;;6.28;;
12290;SDS011;6208;48.956;9.076;2023-05-14T11:07:39;7.22;;;6.70;;
12290;SDS011;6208;48.956;9.076;2023-05-14T11:10:27;6.75;;;6.25;;
12290;SDS011;6208;48.956;9.076;2023-05-14T11:13:12;6.82;;;6.15;;
12290;SDS011;6208;48.956;9.076;2023-05-14T11:15:59;6.25;;;5.72;;
12290;SDS011;6208;48.956;9.076;2023-05-14T11:18:44;6.47;;;5.97;;
12290;SDS011;6208;48.956;9.076;2023-05-14T11:21:29;7.22;;;6.28;;
12290;SDS011;6208;48.956;9.076;2023-05-14T11:24:16;5.47;;;5.15;;
12290;SDS011;6208;48.956;9.076;2023-05-14T11:27:01;5.25;;;4.75;;
12290;SDS011;6208;48.956;9.076;2023-05-14T11:29:46;6.05;;;4.80;;
12290;SDS011;6208;48.956;9.076;2023-05-14T11:32:31;5.35;;;4.95;;
12290;SDS011;6208;48.956;9.076;2023-05-14T11:35:16;5.78;;;5.28;;
12290;SDS011;6208;48.956;9.076;2023-05-14T11:38:00;5.95;;;5.55;;
12290;SDS011;6208;48.956;9.076;2023-05-14T11:40:51;6.03;;;5.53;;
12290;SDS011;6208;48.956;9.076;2023-05-14T11:43:39;5.68;;;5.28;;
12290;SDS011;6208;48.956;9.076;2023-05-14T11:46:24;5.80;;;5.38;;
12290;SDS011;6208;48.956;9.076;2023-05-14T11:49:09;6.10;;;5.70;;
12290;SDS011;6208;48.956;9.076;2023-05-14T11:51:59;5.18;;;4.88;;
12290;SDS011;6208;48.956;9.076;2023-05-14T11:54:45;5.20;;;4.80;;
12290;SDS011;6208;48.956;9.076;2023-05-14T11:57:29;5.00;;;4.60;;
12290;SDS011;6208;48.956;9.076;2023-05-14T12:00:14;4.82;;;4.53;;
12290;SDS011;6208;48.956;9.076;2023-05-14T12:03:03;5.50;;;5.10;;
12290;SDS011;6208;48.956;9.076;2023-05-14T12:05:55;4.75;;;4.35;;
12290;SDS011;6208;48.956;9.076;2023-05-14T12:08:40;4.88;;;4.50;;
12290;SDS011;6208;48.956;9.076;2023-05-14T12:11:24;5.55;;;5.15;;
12290;SDS011;6208;48.956;9.076;2023-05-14T12:14:09;6.85;;;5.25;;
12290;SDS011;6208;48.956;9.076;2023-05-14T12:17:00;5.35;;;4.95;;
12290;SDS011;6208;48.956;9.076;2023-05-14T12:19:47;5.00;;;4.70;;
12290;SDS011;6208;48.956;9.076;2023-05-14T12:22:33;5.20;;;4.57;;
12290;SDS011;6208;48.956;9.076;2023-05-14T12:25:17;4.82;;;4.45;;
12290;SDS011;6208;48.956;9.076;2023-05-14T12:28:01;4.55;;;4.30;;
12290;SDS011;6208;48.956;9.076;2023-05-14T12:30:57;4.57;;;4.28;;
12290;SDS011;6208;48.956;9.076;2023-05-14T12:33:42;4.43;;;4.05;;
12290;SDS011;6208;48.956;9.076;2023-05-14T12:36:26;4.50;;;4.20;;
12290;SDS011;6208;48.956;9.076;2023-05-14T12:39:12;4.90;;;4.60;;
12290;SDS011;6208;48.956;9.076;2023-05-14T12:41:56;4.43;;;4.13;;
12290;SDS011;6208;48.956;9.076;2023-05-14T12:44:41;4.95;;;4.55;;
12290;SDS011;6208;48.956;9.076;2023-05-14T12:47:25;4.70;;;4.40;;
12290;SDS011;6208;48.956;9.076;2023-05-14T12:50:10;4.32;;;4.03;;
12290;SDS011;6208;48.956;9.076;2023-05-14T12:52:55;4.38;;;4.07;;
12290;SDS011;6208;48.956;9.076;2023-05-14T12:55:40;4.15;;;3.85;;
12290;SDS011;6208;48.956;9.076;2023-05-14T12:58:24;4.28;;;3.97;;
12290;SDS011;6208;48.956;9.076;2023-05-14T13:01:09;4.25;;;3.95;;
12290;SDS011;6208;48.956;9.076;2023-05-14T13:03:54;3.88;;;3.67;;
12290;SDS011;6208;48.956;9.076;2023-05-14T13:06:39;3.47;;;3.33;;
12290;SDS011;6208;48.956;9.076;2023-05-14T13:09:26;3.30;;;3.10;;
12290;SDS011;6208;48.956;9.076;2023-05-14T13:12:10;3.45;;;3.25;;
12290;SDS011;6208;48.956;9.076;2023-05-14T13:14:55;3.47;;;3.38;;
12290;SDS011;6208;48.956;9.076;2023-05-14T13:17:40;3.67;;;3.47;;
12290;SDS011;6208;48.956;9.076;2023-05-14T13:20:24;3.45;;;3.25;;
12290;SDS011;6208;48.956;9.076;2023-05-14T13:23:10;3.45;;;3.28;;
12290;SDS011;6208;48.956;9.076;2023-05-14T13:25:54;4.32;;;3.60;;
12290;SDS011;6208;48.956;9.076;2023-05-14T13:28:39;3.72;;;3.53;;
12290;SDS011;6208;48.956;9.076;2023-05-14T13:31:24;3.97;;;3.70;;
12290;SDS011;6208;48.956;9.076;2023-05-14T13:34:08;5.15;;;4.68;;
12290;SDS011;6208;48.956;9.076;2023-05-14T13:36:52;3.88;;;3.67;;
12290;SDS011;6208;48.956;9.076;2023-05-14T13:39:37;3.97;;;3.67;;
12290;SDS011;6208;48.956;9.076;2023-05-14T13:42:21;4.28;;;3.97;;
12290;SDS011;6208;48.956;9.076;2023-05-14T13:45:06;4.10;;;3.90;;
12290;SDS011;6208;48.956;9.076;2023-05-14T13:47:51;4.93;;;4.53;;
12290;SDS011;6208;48.956;9.076;2023-05-14T13:50:35;4.25;;;4.00;;
12290;SDS011;6208;48.956;9.076;2023-05-14T13:53:20;5.03;;;4.63;;
12290;SDS011;6208;48.956;9.076;2023-05-14T13:56:05;4.47;;;4.18;;
12290;SDS011;6208;48.956;9.076;2023-05-14T13:58:51;4.07;;;3.78;;
12290;SDS011;6208;48.956;9.076;2023-05-14T14:01:35;4.18;;;3.88;;
12290;SDS011;6208;48.956;9.076;2023-05-14T14:04:20;4.07;;;3.80;;
12290;SDS011;6208;48.956;9.076;2023-05-14T14:07:04;3.65;;;3.45;;
12290;SDS011;6208;48.956;9.076;2023-05-14T14:09:48;3.97;;;3.67;;
12290;SDS011;6208;48.956;9.076;2023-05-14T14:12:33;3.40;;;3.20;;
12290;SDS011;6208;48.956;9.076;2023-05-14T14:15:18;3.17;;;2.97;;
12290;SDS011;6208;48.956;9.076;2023-05-14T14:18:02;3.80;;;3.50;;
12290;SDS011;6208;48.956;9.076;2023-05-14T14:20:47;3.42;;;3.20;;
12290;SDS011;6208;48.956;9.076;2023-05-14T14:23:32;3.92;;;3.60;;
12290;SDS011;6208;48.956;9.076;2023-05-14T14:26:16;3.28;;;3.08;;
12290;SDS011;6208;48.956;9.076;2023-05-14T14:29:01;3.58;;;3.38;;
12290;SDS011;6208;48.956;9.076;2023-05-14T14:31:46;3.30;;;3.10;;
12290;SDS011;6208;48.956;9.076;2023-05-14T14:34:30;5.18;;;3.17;;
12290;SDS011;6208;48.956;9.076;2023-05-14T14:37:15;4.40;;;3.55;;
12290;SDS011;6208;48.956;9.076;2023-05-14T14:39:59;3.70;;;3.40;;
12290;SDS011;6208;48.956;9.076;2023-05-14T14:42:44;4.82;;;3.45;;
12290;SDS011;6208;48.956;9.076;2023-05-14T14:45:29;3.03;;;2.92;;
12290;SDS011;6208;48.956;9.076;2023-05-14T14:48:29;3.17;;;2.97;;
12290;SDS011;6208;48.956;9.076;2023-05-14T14:51:16;3.00;;;2.90;;
12290;SDS011;6208;48.956;9.076;2023-05-14T14:54:01;3.25;;;3.05;;
12290;SDS011;6208;48.956;9.076;2023-05-14T14:56:47;3.55;;;3.22;;
12290;SDS011;6208;48.956;9.076;2023-05-14T14:59:35;2.88;;;2.78;;
12290;SDS011;6208;48.956;9.076;2023-05-14T15:02:19;3.10;;;2.90;;
12290;SDS011;6208;48.956;9.076;2023-05-14T15:05:04;3.65;;;3.45;;
12290;SDS011;6208;48.956;9.076;2023-05-14T15:07:48;2.85;;;2.65;;
12290;SDS011;6208;48.956;9.076;2023-05-14T15:10:33;2.95;;;2.75;;
12290;SDS011;6208;48.956;9.076;2023-05-14T15:13:20;2.90;;;2.80;;
12290;SDS011;6208;48.956;9.076;2023-05-14T15:16:04;2.40;;;2.30;;
12290;SDS011;6208;48.956;9.076;2023-05-14T15:18:50;3.10;;;2.90;;
12290;SDS011;6208;48.956;9.076;2023-05-14T15:21:34;2.90;;;2.80;;
12290;SDS011;6208;48.956;9.076;2023-05-14T15:24:19;3.13;;;2.97;;
12290;SDS011;6208;48.956;9.076;2023-05-14T15:27:06;2.80;;;2.63;;
12290;SDS011;6208;48.956;9.076;2023-05-14T15:29:50;3.47;;;3.17;;
12290;SDS011;6208;48.956;9.076;2023-05-14T15:32:35;2.90;;;2.80;;
12290;SDS011;6208;48.956;9.076;2023-05-14T15:35:19;3.45;;;3.25;;
12290;SDS011;6208;48.956;9.076;2023-05-14T15:38:04;2.90;;;2.80;;
12290;SDS011;6208;48.956;9.076;2023-05-14T15:40:49;3.30;;;3.03;;
12290;SDS011;6208;48.956;9.076;2023-05-14T15:43:34;3.38;;;3.17;;
12290;SDS011;6208;48.956;9.076;2023-05-14T15:46:18;4.18;;;3.92;;
12290;SDS011;6208;48.956;9.076;2023-05-14T15:49:05;3.75;;;3.55;;
12290;SDS011;6208;48.956;9.076;2023-05-14T15:51:49;3.22;;;3.03;;
12290;SDS011;6208;48.956;9.076;2023-05-14T15:54:33;3.33;;;3.13;;
12290;SDS011;6208;48.956;9.076;2023-05-14T15:57:18;3.13;;;2.92;;
12290;SDS011;6208;48.956;9.076;2023-05-14T16:00:03;3.60;;;3.40;;
12290;SDS011;6208;48.956;9.076;2023-05-14T16:02:56;4.03;;;3.75;;
12290;SDS011;6208;48.956;9.076;2023-05-14T16:05:41;3.70;;;3.40;;
12290;SDS011;6208;48.956;9.076;2023-05-14T16:08:27;9.68;;;8.80;;
12290;SDS011;6208;48.956;9.076;2023-05-14T16:11:11;13.82;;;11.88;;
12290;SDS011;6208;48.956;9.076;2023-05-14T16:13:55;6.22;;;5.72;;
12290;SDS011;6208;48.956;9.076;2023-05-14T16:16:41;13.93;;;11.77;;
12290;SDS011;6208;48.956;9.076;2023-05-14T16:19:25;9.85;;;7.85;;
12290;SDS011;6208;48.956;9.076;2023-05-14T16:22:10;4.10;;;3.80;;
12290;SDS011;6208;48.956;9.076;2023-05-14T16:24:55;3.92;;;3.72;;
12290;SDS011;6208;48.956;9.076;2023-05-14T16:27:39;4.70;;;4.40;;
12290;SDS011;6208;48.956;9.076;2023-05-14T16:30:24;6.22;;;5.28;;
12290;SDS011;6208;48.956;9.076;2023-05-14T16:33:08;4.63;;;4.22;;
12290;SDS011;6208;48.956;9.076;2023-05-14T16:35:52;4.03;;;3.72;;
12290;SDS011;6208;48.956;9.076;2023-05-14T16:38:37;6.80;;;6.18;;
12290;SDS011;6208;48.956;9.076;2023-05-14T16:41:21;6.43;;;5.95;;
12290;SDS011;6208;48.956;9.076;2023-05-14T16:44:06;3.42;;;3.22;;
12290;SDS011;6208;48.956;9.076;2023-05-14T16:46:51;3.10;;;2.90;;
12290;SDS011;6208;48.956;9.076;2023-05-14T16:49:35;3.30;;;3.10;;